Latest Weather Observations for Brisbane Airport

IDQ60901

Issued at 8:01 pm EST Monday 4 July 2022 (issued every 10 minutes, with the page automatically refreshed every 10 minutes)

About weather observations | Map of Brisbane area stations | Latest observations for Brisbane area | Other Formats
Station Details ID: 040842 Name: BRISBANE AERO Lat: -27.39 Lon: 153.13 Height: 4.51 m
Data from the previous 72 hours. | See also: Recent months at Brisbane Airport
Date/Time
EST
Temp
°C
App
Temp
°C
Dew
Point
°C
Rel
Hum
%
Delta-T
°C
Wind Press
QNH
hPa
Press
MSL
hPa
Rain since
9am
mm
Dir  Spd
km/h
Gust
km/h
Spd
kts
Gust
kts
04/08:00pm 11.4 9.7 9.8 90 0.8 WNW 9 13 5 7 1015.7 1015.7 1.2
04/07:30pm 11.3 9.2 9.7 90 0.8 WNW 11 17 6 9 1015.6 1015.6 1.2
04/07:00pm 11.3 9.9 9.7 90 0.8 S 7 7 4 4 1014.4 1014.4 1.2
04/06:30pm 11.3 10.2 9.9 91 0.7 SSW 6 7 3 4 1014.4 1014.4 1.0
04/06:00pm 11.4 9.3 9.8 90 0.8 WSW 11 19 6 10 1015.1 1015.1 0.8
04/05:30pm 11.6 9.4 9.2 85 1.2 W 11 17 6 9 1014.8 1014.8 0.6
04/05:00pm 11.7 10.5 9.6 87 1.1 N 6 13 3 7 1015.3 1015.3 0.4
04/04:30pm 11.7 9.6 9.6 87 1.1 NNE 11 13 6 7 1014.8 1014.8 0.2
04/04:00pm 12.4 9.8 9.2 81 1.6 NNW 13 15 7 8 1015.2 1015.2 0.0
04/03:30pm 13.0 10.9 8.3 73 2.3 NNW 9 13 5 7 1014.9 1014.9 0.0
04/03:00pm 13.8 10.3 7.3 65 3.2 WNW 15 19 8 10 1014.9 1014.9 0.0
04/02:30pm 13.9 12.1 7.2 64 3.3 N 6 9 3 5 1013.7 1013.7 0.0
04/02:00pm 13.5 10.1 7.7 68 2.9 W 15 20 8 11 1014.4 1014.4 0.0
04/01:30pm 13.7 11.7 7.2 65 3.2 SW 7 11 4 6 1013.3 1013.3 0.0
04/01:00pm 13.9 11.9 7.2 64 3.3 W 7 9 4 5 1013.7 1013.7 0.0
04/12:30pm 13.9 10.0 7.2 64 3.3 W 17 24 9 13 1014.6 1014.6 0.0
04/12:00pm 13.8 11.3 8.4 70 2.7 W 11 15 6 8 1015.5 1015.5 0.0
04/11:30am 13.8 10.1 7.8 67 3.0 WNW 17 20 9 11 1015.9 1015.9 0.0
04/11:00am 14.0 9.9 8.0 67 3.0 WNW 19 26 10 14 1016.7 1016.7 0.0
04/10:53am 14.1 10.6 7.4 64 3.3 NW 15 20 8 11 1017.0 1017.0 0.0
04/10:30am 14.0 11.9 6.8 62 3.5 WNW 7 13 4 7 1014.8 1014.8 0.0
04/10:00am 13.6 10.9 7.4 66 3.0 WNW 11 17 6 9 1015.6 1015.6 0.0
04/09:30am 12.9 10.6 7.6 70 2.6 NW 9 15 5 8 1015.4 1015.4 0.0
04/09:00am 12.3 10.0 7.4 72 2.4 NNW 9 13 5 7 1016.0 1016.0 0.0
04/08:30am 12.0 10.7 7.7 75 2.1 NW 4 11 2 6 1015.6 1015.6 0.0
04/08:00am 12.4 10.4 7.1 70 2.5 NW 7 13 4 7 1015.5 1015.5 0.0
04/07:30am 12.0 9.7 7.5 74 2.2 NW 9 15 5 8 1015.4 1015.4 0.0
04/07:00am 11.8 9.1 7.3 74 2.2 W 11 17 6 9 1014.2 1014.2 0.0
04/06:30am 11.5 8.8 7.4 76 2.0 WSW 11 15 6 8 1013.7 1013.7 0.0
04/06:00am 11.9 10.2 7.4 74 2.2 WNW 6 13 3 7 1014.4 1014.4 0.0
04/05:30am 11.9 9.5 7.2 73 2.3 NNW 9 11 5 6 1014.0 1014.0 0.0
04/05:00am 11.5 9.3 7.8 78 1.8 N 9 9 5 5 1013.1 1013.1 0.0
04/04:30am 11.5 8.5 7.6 77 1.9 W 13 19 7 10 1013.6 1013.6 0.0
04/04:00am 11.6 9.4 7.7 77 1.9 SW 9 13 5 7 1012.9 1012.9 0.0
04/03:30am 11.5 9.0 8.2 80 1.6 WSW 11 15 6 8 1014.1 1014.1 0.0
04/03:00am 11.6 8.7 8.1 79 1.7 WNW 13 15 7 8 1015.0 1015.0 0.0
04/02:30am 11.6 8.7 8.3 80 1.6 NNW 13 15 7 8 1014.8 1014.8 0.0
04/02:00am 11.7 11.4 8.6 81 1.5 CALM 0 0 0 0 1013.8 1013.8 0.0
04/01:30am 12.0 10.5 8.5 79 1.7 WNW 6 9 3 5 1014.0 1014.0 0.0
04/01:00am 12.3 10.1 8.0 75 2.1 W 9 11 5 6 1014.6 1014.6 0.0
04/12:30am 11.5 9.1 8.7 83 1.4 WSW 11 15 6 8 1013.9 1013.9 0.0
04/12:00am 11.9 9.5 8.6 80 1.6 W 11 17 6 9 1014.5 1014.5 0.0
 
Date/Time
EST
Temp
°C
App
Temp
°C
Dew
Point
°C
Rel
Hum
%
Delta-T
°C
Wind Press
QNH
hPa
Press
MSL
hPa
Rain since
9am
mm
Dir  Spd
km/h
Gust
km/h
Spd
kts
Gust
kts
03/11:30pm 12.1 10.1 8.6 79 1.7 NW 9 9 5 5 1014.8 1014.8 0.0
03/11:00pm 11.9 10.2 8.4 79 1.7 W 7 11 4 6 1014.9 1014.9 0.0
03/10:30pm 12.3 10.7 8.2 76 2.0 WSW 6 9 3 5 1014.7 1014.7 0.0
03/10:00pm 12.4 10.0 8.7 78 1.8 WSW 11 13 6 7 1014.5 1014.5 0.0
03/09:30pm 12.9 11.2 8.4 74 2.2 WSW 7 13 4 7 1014.9 1014.9 0.0
03/09:00pm 13.2 12.1 8.5 73 2.3 WNW 4 7 2 4 1015.1 1015.1 0.0
03/08:30pm 13.1 11.1 8.6 74 2.2 WNW 9 13 5 7 1015.2 1015.2 0.0
03/08:00pm 12.5 10.0 8.2 75 2.1 WNW 11 13 6 7 1014.5 1014.5 0.0
03/07:30pm 12.9 11.4 8.6 75 2.1 WNW 6 7 3 4 1014.6 1014.6 0.0
03/07:00pm 13.1 11.0 8.4 73 2.3 W 9 11 5 6 1014.1 1014.1 0.0
03/06:30pm 13.2 10.3 8.3 72 2.4 W 13 15 7 8 1014.0 1014.0 0.0
03/06:00pm 13.7 10.5 8.5 71 2.6 WSW 15 19 8 10 1013.9 1013.9 0.0
03/05:30pm 13.5 11.1 8.8 73 2.4 SW 11 17 6 9 1013.9 1013.9 0.0
03/05:00pm 14.3 11.1 8.3 67 3.0 WSW 15 19 8 10 1013.9 1013.9 0.0
03/04:30pm 15.5 11.8 7.8 60 3.8 SW 17 22 9 12 1013.4 1013.4 0.0
03/04:00pm 15.8 10.9 8.5 62 3.7 SW 24 28 13 15 1013.4 1013.4 0.0
03/03:30pm 16.3 12.2 8.8 61 3.8 SW 20 26 11 14 1013.1 1013.1 0.0
03/03:00pm 17.0 13.2 9.9 63 3.7 SW 20 26 11 14 1012.9 1012.9 0.0
03/02:30pm 18.0 14.2 9.9 59 4.3 SW 20 28 11 15 1013.1 1013.1 0.0
03/02:00pm 18.0 14.8 9.9 59 4.3 SW 17 24 9 13 1013.3 1013.3 0.0
03/01:30pm 18.0 14.5 10.1 60 4.2 SW 19 28 10 15 1013.1 1013.1 0.0
03/01:00pm 18.0 14.8 10.1 60 4.2 SSW 17 24 9 13 1013.4 1013.4 0.0
03/12:30pm 18.2 15.4 11.3 64 3.8 SW 17 24 9 13 1014.1 1014.1 0.0
03/12:00pm 17.4 14.2 10.1 62 3.9 SW 17 26 9 14 1014.2 1014.2 0.0
03/11:30am 17.3 14.8 10.9 66 3.4 SW 15 22 8 12 1014.9 1014.9 0.0
03/11:00am 16.9 13.9 10.5 66 3.4 SW 17 20 9 11 1015.1 1015.1 0.0
03/10:30am 16.8 14.4 11.3 70 3.0 SW 15 20 8 11 1015.7 1015.7 0.0
03/10:00am 15.9 12.7 10.0 68 3.1 WSW 17 20 9 11 1016.0 1016.0 0.0
03/09:30am 14.4 10.7 9.6 73 2.5 WSW 19 26 10 14 1016.2 1016.2 0.0
03/09:00am 13.6 9.8 9.8 78 2.0 WSW 20 28 11 15 1016.0 1016.0 2.2
03/08:30am 13.8 9.3 10.0 78 2.0 WSW 24 30 13 16 1015.9 1015.9 2.2
03/08:00am 13.2 9.0 9.6 79 1.8 WSW 22 26 12 14 1015.8 1015.8 2.2
03/07:30am 12.9 9.3 10.4 85 1.3 SW 20 28 11 15 1015.8 1015.8 2.2
03/07:00am 12.7 10.3 10.2 85 1.3 SW 13 19 7 10 1015.6 1015.6 2.2
03/06:30am 12.7 9.4 10.8 88 1.0 SW 19 26 10 14 1015.2 1015.2 2.2
03/06:00am 13.1 9.4 10.1 82 1.5 WSW 20 26 11 14 1015.0 1015.0 2.2
03/05:30am 13.1 9.6 10.3 83 1.4 SW 19 24 10 13 1014.8 1014.8 2.2
03/05:00am 13.4 8.3 10.6 83 1.5 SW 28 33 15 18 1014.5 1014.5 2.2
03/04:30am 13.7 10.7 10.7 82 1.6 WSW 17 22 9 12 1014.6 1014.6 2.2
03/04:00am 13.7 10.8 11.0 84 1.4 WSW 17 20 9 11 1014.7 1014.7 2.2
03/03:30am 14.0 11.2 11.5 85 1.3 WSW 17 20 9 11 1014.8 1014.8 2.2
03/03:00am 14.0 11.3 11.7 86 1.2 SW 17 22 9 12 1014.6 1014.6 2.2
03/02:30am 14.3 11.7 12.0 86 1.2 SW 17 20 9 11 1014.9 1014.9 2.2
03/02:00am 14.7 12.7 12.6 87 1.1 WSW 15 20 8 11 1015.2 1015.2 2.2
03/01:30am 15.0 13.6 13.4 90 0.9 SW 13 17 7 9 1015.1 1015.1 2.2
03/01:00am 15.1 14.7 14.1 94 0.6 SW 9 11 5 6 1015.7 1015.7 2.2
03/12:30am 15.1 14.8 14.3 95 0.5 SSW 9 13 5 7 1015.6 1015.6 2.2
03/12:00am 15.3 15.0 14.5 95 0.5 SW 9 13 5 7 1015.7 1015.7 2.2
 
Date/Time
EST
Temp
°C
App
Temp
°C
Dew
Point
°C
Rel
Hum
%
Delta-T
°C
Wind Press
QNH
hPa
Press
MSL
hPa
Rain since
9am
mm
Dir  Spd
km/h
Gust
km/h
Spd
kts
Gust
kts
02/11:30pm 15.2 14.9 14.4 95 0.5 SSW 9 13 5 7 1015.8 1015.8 2.2
02/11:00pm 15.4 14.8 14.6 95 0.5 SSW 11 15 6 8 1015.9 1015.9 2.2
02/10:30pm 15.6 15.3 14.5 93 0.6 SSW 9 13 5 7 1016.1 1016.1 2.2
02/10:00pm 15.5 15.3 14.7 95 0.5 SSW 9 11 5 6 1016.3 1016.3 2.2
02/09:30pm 15.4 14.8 14.6 95 0.5 SW 11 13 6 7 1016.3 1016.3 2.2
02/09:00pm 15.4 14.4 14.6 95 0.5 SSW 13 17 7 9 1016.3 1016.3 2.2
02/08:30pm 15.7 15.5 14.7 94 0.6 SSW 9 13 5 7 1016.4 1016.4 2.2
02/08:00pm 15.7 14.8 14.9 95 0.5 SW 13 15 7 8 1016.8 1016.8 2.2
02/07:30pm 15.6 15.1 14.8 95 0.5 SW 11 15 6 8 1016.7 1016.7 2.2
02/07:00pm 15.8 15.6 14.8 94 0.6 SSW 9 11 5 6 1016.4 1016.4 2.2
02/06:30pm 15.8 15.7 15.0 95 0.5 S 9 11 5 6 1016.1 1016.1 2.2
02/06:00pm 15.7 16.0 14.9 95 0.5 SSW 7 9 4 5 1016.3 1016.3 2.2
02/05:30pm 15.9 17.1 14.9 94 0.6 SW 2 9 1 5 1016.3 1016.3 2.2
02/05:00pm 16.1 16.1 15.1 94 0.6 SW 9 9 5 5 1016.4 1016.4 2.2
02/04:30pm 16.3 18.0 15.2 93 0.6 CALM 0 0 0 0 1016.2 1016.2 2.2
02/04:00pm 16.3 15.2 15.2 93 0.6 SW 15 19 8 10 1016.4 1016.4 2.2
02/03:30pm 16.5 15.7 15.2 92 0.8 SSW 13 17 7 9 1015.7 1015.7 2.2
02/03:00pm 16.7 16.4 15.4 92 0.8 SSW 11 15 6 8 1016.3 1016.3 2.2
02/02:30pm 16.7 16.4 15.4 92 0.8 SSW 11 15 6 8 1015.6 1015.6 2.2
02/02:00pm 16.6 16.3 15.5 93 0.6 SSW 11 15 6 8 1016.6 1016.6 2.2
02/01:30pm 16.5 15.4 15.4 93 0.6 SW 15 19 8 10 1017.1 1017.1 1.8
02/01:00pm 16.8 17.1 16.0 95 0.5 S 9 13 5 7 1016.6 1016.6 1.6
02/12:30pm 16.4 15.7 15.4 94 0.6 SSW 13 17 7 9 1017.4 1017.4 1.6
02/12:00pm 16.4 16.1 15.4 94 0.6 SW 11 13 6 7 1018.2 1018.1 1.4
02/11:30am 16.3 16.3 15.2 93 0.6 SW 9 11 5 6 1018.3 1018.2 1.2
02/11:18am 16.4 16.5 15.4 94 0.6 SW 9 11 5 6 1018.6 1018.5 1.0
02/11:00am 16.3 16.3 15.3 94 0.6 SW 9 9 5 5 1018.7 1018.6 0.8
02/10:30am 16.1 16.4 15.1 94 0.6 SSW 7 9 4 5 1018.6 1018.5 0.6
02/10:00am 15.9 15.5 15.1 95 0.5 SSW 11 13 6 7 1018.9 1018.8 0.6
02/09:54am 15.9 15.9 15.1 95 0.5 SSW 9 13 5 7 1018.9 1018.8 0.6
02/09:30am 15.7 15.3 15.1 96 0.3 SSW 11 15 6 8 1019.2 1019.1 0.4
02/09:00am 15.5 15.4 14.9 96 0.3 SW 9 11 5 6 1019.3 1019.2 21.6
02/08:30am 15.4 15.3 14.9 97 0.3 SSW 9 11 5 6 1019.3 1019.2 21.6
02/08:00am 15.2 15.0 14.7 97 0.3 SW 9 11 5 6 1019.1 1019.0 21.6
02/07:30am 15.1 15.4 14.6 97 0.3 WSW 6 7 3 4 1018.8 1018.7 21.6
02/07:00am 14.9 15.0 14.4 97 0.3 SW 7 11 4 6 1018.9 1018.8 21.4
02/06:30am 14.8 14.5 14.3 97 0.3 SW 9 11 5 6 1018.8 1018.7 21.0
02/06:00am 14.8 14.1 14.3 97 0.3 SW 11 13 6 7 1018.6 1018.5 20.6
02/05:57am 14.8 14.5 14.3 97 0.3 SW 9 13 5 7 1018.5 1018.4 20.6
02/05:30am 14.7 13.6 14.2 97 0.3 SW 13 15 7 8 1018.6 1018.5 20.4
02/05:00am 14.7 13.6 14.2 97 0.3 SW 13 19 7 10 1018.4 1018.3 20.0
02/04:45am 14.8 13.7 14.3 97 0.3 SW 13 19 7 10 1018.5 1018.4 19.8
02/04:30am 14.8 14.1 14.3 97 0.3 SW 11 15 6 8 1018.4 1018.3 19.6
02/04:00am 14.8 13.3 14.3 97 0.3 SW 15 17 8 9 1018.4 1018.3 19.6
02/03:30am 14.8 13.7 14.3 97 0.3 SW 13 17 7 9 1018.6 1018.5 19.2
02/03:00am 14.8 14.4 14.2 96 0.3 SSW 9 13 5 7 1018.8 1018.7 19.2
02/02:30am 14.9 14.2 14.3 96 0.3 SSW 11 15 6 8 1019.2 1019.1 18.8
02/02:00am 14.9 13.8 14.3 96 0.3 SSW 13 15 7 8 1019.2 1019.1 18.6
02/01:46am 14.9 13.8 14.3 96 0.3 SSW 13 19 7 10 1019.2 1019.1 18.6
02/01:30am 14.8 13.7 14.3 97 0.3 SSW 13 19 7 10 1019.3 1019.2 18.6
02/01:10am 14.8 13.7 14.3 97 0.3 SSW 13 17 7 9 1019.7 1019.6 18.4
02/01:00am 14.8 13.7 14.3 97 0.3 SSW 13 19 7 10 1019.7 1019.6 18.2
02/12:49am 14.8 13.3 14.3 97 0.3 SW 15 19 8 10 1019.9 1019.8 18.0
02/12:30am 14.8 12.9 14.3 97 0.3 SW 17 22 9 12 1020.0 1019.9 17.2
02/12:26am 14.8 12.9 14.3 97 0.3 SW 17 22 9 12 1020.0 1019.9 17.2
02/12:00am 14.8 13.3 14.3 97 0.3 SW 15 22 8 12 1020.2 1020.1 15.8
 
Date/Time
EST
Temp
°C
App
Temp
°C
Dew
Point
°C
Rel
Hum
%
Delta-T
°C
Wind Press
QNH
hPa
Press
MSL
hPa
Rain since
9am
mm
Dir  Spd
km/h
Gust
km/h
Spd
kts
Gust
kts
01/11:53pm 14.8 13.3 14.3 97 0.3 SW 15 19 8 10 1020.2 1020.1 15.4
01/11:30pm 14.9 13.5 14.4 97 0.3 SW 15 19 8 10 1020.3 1020.2 14.2
01/11:24pm 14.9 13.8 14.3 96 0.3 SW 13 19 7 10 1020.3 1020.2 13.8
01/11:04pm 15.0 13.6 14.4 96 0.3 SW 15 19 8 10 1020.2 1020.1 13.4
01/11:00pm 15.0 13.6 14.4 96 0.3 SW 15 19 8 10 1020.2 1020.1 13.4
01/10:30pm 15.0 13.9 14.4 96 0.3 SSW 13 19 7 10 1020.4 1020.3 13.2
01/10:10pm 15.0 14.0 14.5 97 0.3 SSW 13 17 7 9 1020.8 1020.7 13.0
01/10:00pm 15.0 12.8 14.5 97 0.3 SW 19 24 10 13 1021.0 1020.9 12.8
01/09:54pm 15.0 13.2 14.5 97 0.3 SW 17 24 9 13 1021.1 1021.0 12.2
01/09:30pm 15.0 13.2 14.5 97 0.3 SW 17 19 9 10 1021.3 1021.2 11.0
01/09:10pm 15.1 13.7 14.6 97 0.3 SW 15 19 8 10 1021.3 1021.2 10.2
01/09:00pm 15.3 14.7 14.7 96 0.3 SSW 11 15 6 8 1021.2 1021.1 9.6
01/08:50pm 15.3 14.7 14.7 96 0.3 SSW 11 17 6 9 1020.9 1020.8 9.4
01/08:30pm 15.2 14.6 14.6 96 0.3 SSW 11 15 6 8 1020.8 1020.7 9.0

Latest Capital City Observations: Canberra | Sydney | Melbourne | Brisbane | Adelaide | Perth | Hobart | Darwin

Other formats

Comma delimited format used in spreadsheet applications
http://www.bom.gov.au/fwo/IDQ60901/IDQ60901.94578.axf

JavaScript Object Notation format (JSON) in row-major order
http://www.bom.gov.au/fwo/IDQ60901/IDQ60901.94578.json

Data quality

Most of these data are generated automatically and are frequently updated. Quality checks on data are not normally performed. It is possible for incorrect values to appear. Refer to information at About Latest Weather Observations and please check the disclaimer before using these data.